sensor_id;sensor_type;location;lat;lon;timestamp;pressure;altitude;pressure_sealevel;temperature;humidity
10618;BME280;5356;43.526;26.534;2022-09-09T00:00:17;99207.88;;;20.38;94.89
10618;BME280;5356;43.526;26.534;2022-09-09T00:03:11;99202.22;;;20.35;95.01
10618;BME280;5356;43.526;26.534;2022-09-09T00:06:23;99199.34;;;20.21;95.19
10618;BME280;5356;43.526;26.534;2022-09-09T00:14:14;99204.88;;;20.06;95.45
10618;BME280;5356;43.526;26.534;2022-09-09T00:16:48;99199.78;;;20.04;95.67
10618;BME280;5356;43.526;26.534;2022-09-09T00:19:21;99196.53;;;20.02;95.95
10618;BME280;5356;43.526;26.534;2022-09-09T00:27:06;99195.56;;;19.88;95.94
10618;BME280;5356;43.526;26.534;2022-09-09T00:29:49;99192.31;;;19.86;96.50
10618;BME280;5356;43.526;26.534;2022-09-09T00:32:19;99193.13;;;19.86;96.38
10618;BME280;5356;43.526;26.534;2022-09-09T00:35:16;99196.91;;;19.85;96.46
10618;BME280;5356;43.526;26.534;2022-09-09T00:37:44;99200.66;;;19.89;96.28
10618;BME280;5356;43.526;26.534;2022-09-09T00:40:34;99214.13;;;20.00;96.33
10618;BME280;5356;43.526;26.534;2022-09-09T00:48:22;99198.25;;;20.27;95.33
10618;BME280;5356;43.526;26.534;2022-09-09T00:51:05;99193.88;;;20.31;95.16
10618;BME280;5356;43.526;26.534;2022-09-09T00:53:51;99194.66;;;20.32;94.87
10618;BME280;5356;43.526;26.534;2022-09-09T00:56:37;99184.75;;;20.22;94.90
10618;BME280;5356;43.526;26.534;2022-09-09T00:59:14;99191.28;;;20.16;94.95
10618;BME280;5356;43.526;26.534;2022-09-09T01:01:41;99187.03;;;20.10;95.15
10618;BME280;5356;43.526;26.534;2022-09-09T01:04:13;99191.41;;;20.01;95.20
10618;BME280;5356;43.526;26.534;2022-09-09T01:06:43;99190.88;;;19.99;95.58
10618;BME280;5356;43.526;26.534;2022-09-09T01:09:21;99186.59;;;19.92;95.77
10618;BME280;5356;43.526;26.534;2022-09-09T01:14:40;99191.31;;;19.71;95.89
10618;BME280;5356;43.526;26.534;2022-09-09T01:22:50;99187.53;;;19.72;97.20
10618;BME280;5356;43.526;26.534;2022-09-09T01:28:35;99196.41;;;19.78;96.49
10618;BME280;5356;43.526;26.534;2022-09-09T01:31:06;99189.66;;;19.76;97.15
10618;BME280;5356;43.526;26.534;2022-09-09T01:33:34;99187.28;;;19.64;96.96
10618;BME280;5356;43.526;26.534;2022-09-09T01:38:32;99192.44;;;19.65;96.58
10618;BME280;5356;43.526;26.534;2022-09-09T01:40:58;99183.00;;;19.52;96.92
10618;BME280;5356;43.526;26.534;2022-09-09T01:43:25;99184.69;;;19.43;97.44
10618;BME280;5356;43.526;26.534;2022-09-09T01:45:54;99177.69;;;19.42;97.70
10618;BME280;5356;43.526;26.534;2022-09-09T01:48:21;99179.28;;;19.43;97.98
10618;BME280;5356;43.526;26.534;2022-09-09T01:50:48;99187.63;;;19.47;97.98
10618;BME280;5356;43.526;26.534;2022-09-09T01:53:14;99194.13;;;19.51;97.97
10618;BME280;5356;43.526;26.534;2022-09-09T01:55:49;99188.13;;;19.59;98.06
10618;BME280;5356;43.526;26.534;2022-09-09T02:01:37;99181.56;;;19.76;96.70
10618;BME280;5356;43.526;26.534;2022-09-09T02:04:11;99180.19;;;19.78;96.15
10618;BME280;5356;43.526;26.534;2022-09-09T02:06:45;99189.41;;;19.77;96.34
10618;BME280;5356;43.526;26.534;2022-09-09T02:09:12;99184.56;;;19.74;96.23
10618;BME280;5356;43.526;26.534;2022-09-09T02:11:41;99181.25;;;19.82;96.25
10618;BME280;5356;43.526;26.534;2022-09-09T02:14:17;99175.25;;;19.90;96.10
10618;BME280;5356;43.526;26.534;2022-09-09T02:17:01;99179.81;;;19.95;95.65
10618;BME280;5356;43.526;26.534;2022-09-09T02:19:32;99178.72;;;19.96;95.30
10618;BME280;5356;43.526;26.534;2022-09-09T02:22:00;99176.84;;;19.96;95.13
10618;BME280;5356;43.526;26.534;2022-09-09T02:24:29;99174.72;;;19.88;94.96
10618;BME280;5356;43.526;26.534;2022-09-09T02:26:57;99179.34;;;19.88;95.59
10618;BME280;5356;43.526;26.534;2022-09-09T02:29:38;99171.84;;;19.74;95.16
10618;BME280;5356;43.526;26.534;2022-09-09T02:32:10;99172.13;;;19.73;95.66
10618;BME280;5356;43.526;26.534;2022-09-09T02:34:41;99178.59;;;19.72;95.52
10618;BME280;5356;43.526;26.534;2022-09-09T02:37:09;99166.75;;;19.63;95.76
10618;BME280;5356;43.526;26.534;2022-09-09T02:39:36;99169.25;;;19.54;96.57
10618;BME280;5356;43.526;26.534;2022-09-09T02:42:03;99166.28;;;19.50;96.62
10618;BME280;5356;43.526;26.534;2022-09-09T02:44:29;99169.25;;;19.49;96.88
10618;BME280;5356;43.526;26.534;2022-09-09T02:47:16;99171.16;;;19.48;97.11
10618;BME280;5356;43.526;26.534;2022-09-09T02:49:55;99160.09;;;19.45;97.10
10618;BME280;5356;43.526;26.534;2022-09-09T02:52:52;99154.75;;;19.35;97.60
10618;BME280;5356;43.526;26.534;2022-09-09T02:55:33;99160.41;;;19.38;97.48
10618;BME280;5356;43.526;26.534;2022-09-09T02:58:04;99170.16;;;19.34;97.60
10618;BME280;5356;43.526;26.534;2022-09-09T03:00:32;99175.81;;;19.38;97.57
10618;BME280;5356;43.526;26.534;2022-09-09T03:02:58;99173.38;;;19.36;97.51
10618;BME280;5356;43.526;26.534;2022-09-09T03:05:24;99170.16;;;19.34;97.82
10618;BME280;5356;43.526;26.534;2022-09-09T03:07:50;99171.78;;;19.30;97.75
10618;BME280;5356;43.526;26.534;2022-09-09T03:10:16;99168.81;;;19.26;98.52
10618;BME280;5356;43.526;26.534;2022-09-09T03:12:42;99167.50;;;19.19;98.28
10618;BME280;5356;43.526;26.534;2022-09-09T03:15:08;99155.09;;;19.18;99.46
10618;BME280;5356;43.526;26.534;2022-09-09T03:17:35;99160.97;;;19.30;99.60
10618;BME280;5356;43.526;26.534;2022-09-09T03:20:03;99161.53;;;19.27;99.02
10618;BME280;5356;43.526;26.534;2022-09-09T03:22:29;99157.47;;;19.29;99.06
10618;BME280;5356;43.526;26.534;2022-09-09T03:24:54;99154.44;;;19.36;99.12
10618;BME280;5356;43.526;26.534;2022-09-09T03:27:20;99158.47;;;19.44;98.95
10618;BME280;5356;43.526;26.534;2022-09-09T03:29:46;99151.16;;;19.44;98.56
10618;BME280;5356;43.526;26.534;2022-09-09T03:32:12;99164.69;;;19.44;98.51
10618;BME280;5356;43.526;26.534;2022-09-09T03:34:37;99155.50;;;19.45;99.03
10618;BME280;5356;43.526;26.534;2022-09-09T03:37:06;99160.06;;;19.50;98.28
10618;BME280;5356;43.526;26.534;2022-09-09T03:39:32;99160.56;;;19.57;98.34
10618;BME280;5356;43.526;26.534;2022-09-09T03:41:57;99157.53;;;19.64;98.30
10618;BME280;5356;43.526;26.534;2022-09-09T03:44:22;99155.16;;;19.67;97.34
10618;BME280;5356;43.526;26.534;2022-09-09T03:46:48;99152.69;;;19.61;97.25
10618;BME280;5356;43.526;26.534;2022-09-09T03:49:13;99155.75;;;19.49;97.74
10618;BME280;5356;43.526;26.534;2022-09-09T03:51:39;99161.19;;;19.44;98.00
10618;BME280;5356;43.526;26.534;2022-09-09T03:54:05;99160.38;;;19.43;98.02
10618;BME280;5356;43.526;26.534;2022-09-09T03:56:34;99162.03;;;19.39;98.47
10618;BME280;5356;43.526;26.534;2022-09-09T03:59:00;99171.19;;;19.38;98.49
10618;BME280;5356;43.526;26.534;2022-09-09T04:01:25;99170.09;;;19.44;98.88
10618;BME280;5356;43.526;26.534;2022-09-09T04:03:51;99176.59;;;19.38;98.68
10618;BME280;5356;43.526;26.534;2022-09-09T04:06:18;99171.75;;;19.40;98.84
10618;BME280;5356;43.526;26.534;2022-09-09T04:08:45;99172.22;;;19.47;99.03
10618;BME280;5356;43.526;26.534;2022-09-09T04:11:13;99173.00;;;19.53;99.16
10618;BME280;5356;43.526;26.534;2022-09-09T04:13:39;99177.03;;;19.66;99.00
10618;BME280;5356;43.526;26.534;2022-09-09T04:16:05;99179.69;;;19.76;98.75
10618;BME280;5356;43.526;26.534;2022-09-09T04:18:31;99182.31;;;19.86;98.21
10618;BME280;5356;43.526;26.534;2022-09-09T04:20:58;99192.28;;;19.91;97.80
10618;BME280;5356;43.526;26.534;2022-09-09T04:23:25;99193.59;;;19.99;97.71
10618;BME280;5356;43.526;26.534;2022-09-09T04:25:52;99194.06;;;20.06;97.42
10618;BME280;5356;43.526;26.534;2022-09-09T04:28:20;99185.88;;;20.16;97.13
10618;BME280;5356;43.526;26.534;2022-09-09T04:30:46;99182.13;;;20.12;96.14
10618;BME280;5356;43.526;26.534;2022-09-09T04:33:12;99180.34;;;19.97;96.19
10618;BME280;5356;43.526;26.534;2022-09-09T04:35:38;99176.34;;;19.84;96.85
10618;BME280;5356;43.526;26.534;2022-09-09T04:38:05;99183.16;;;19.82;97.06
10618;BME280;5356;43.526;26.534;2022-09-09T04:40:32;99172.94;;;19.73;96.95
10618;BME280;5356;43.526;26.534;2022-09-09T04:42:59;99180.28;;;19.68;97.29
10618;BME280;5356;43.526;26.534;2022-09-09T04:45:24;99179.47;;;19.62;97.90
10618;BME280;5356;43.526;26.534;2022-09-09T04:47:51;99168.38;;;19.59;97.68
10618;BME280;5356;43.526;26.534;2022-09-09T04:50:16;99176.22;;;19.65;97.88
10618;BME280;5356;43.526;26.534;2022-09-09T04:52:42;99172.16;;;19.68;97.82
10618;BME280;5356;43.526;26.534;2022-09-09T04:55:08;99171.03;;;19.74;98.29
10618;BME280;5356;43.526;26.534;2022-09-09T04:57:34;99171.50;;;19.81;98.64
10618;BME280;5356;43.526;26.534;2022-09-09T05:00:00;99165.50;;;19.89;97.88
10618;BME280;5356;43.526;26.534;2022-09-09T05:02:27;99175.75;;;19.92;97.89
10618;BME280;5356;43.526;26.534;2022-09-09T05:04:53;99167.09;;;19.95;98.12
10618;BME280;5356;43.526;26.534;2022-09-09T05:07:19;99175.69;;;20.03;97.78
10618;BME280;5356;43.526;26.534;2022-09-09T05:09:44;99171.59;;;20.10;97.72
10618;BME280;5356;43.526;26.534;2022-09-09T05:12:10;99168.56;;;20.17;97.52
10618;BME280;5356;43.526;26.534;2022-09-09T05:14:36;99170.13;;;20.23;97.59
10618;BME280;5356;43.526;26.534;2022-09-09T05:17:03;99160.59;;;20.31;97.33
10618;BME280;5356;43.526;26.534;2022-09-09T05:19:28;99163.22;;;20.41;97.06
10618;BME280;5356;43.526;26.534;2022-09-09T05:21:55;99163.41;;;20.50;96.34
10618;BME280;5356;43.526;26.534;2022-09-09T05:24:22;99162.88;;;20.53;96.46
10618;BME280;5356;43.526;26.534;2022-09-09T05:26:48;99161.50;;;20.55;96.39
10618;BME280;5356;43.526;26.534;2022-09-09T05:29:14;99168.16;;;20.63;96.26
10618;BME280;5356;43.526;26.534;2022-09-09T05:31:39;99164.81;;;20.71;95.80
10618;BME280;5356;43.526;26.534;2022-09-09T05:34:06;99167.50;;;20.76;95.74
10618;BME280;5356;43.526;26.534;2022-09-09T05:36:31;99162.03;;;20.81;95.16
10618;BME280;5356;43.526;26.534;2022-09-09T05:38:57;99167.38;;;20.87;95.32
10618;BME280;5356;43.526;26.534;2022-09-09T05:41:23;99161.34;;;20.95;95.06
10618;BME280;5356;43.526;26.534;2022-09-09T05:43:48;99156.88;;;21.04;95.11
10618;BME280;5356;43.526;26.534;2022-09-09T05:46:19;99157.31;;;21.11;93.89
10618;BME280;5356;43.526;26.534;2022-09-09T05:48:46;99156.41;;;21.21;93.83
10618;BME280;5356;43.526;26.534;2022-09-09T05:51:14;99165.22;;;21.32;93.58
10618;BME280;5356;43.526;26.534;2022-09-09T05:53:44;99168.34;;;21.44;93.43
10618;BME280;5356;43.526;26.534;2022-09-09T05:56:18;99160.56;;;21.56;92.77
10618;BME280;5356;43.526;26.534;2022-09-09T05:58:45;99175.59;;;21.67;91.95
10618;BME280;5356;43.526;26.534;2022-09-09T06:01:19;99177.06;;;21.79;91.62
10618;BME280;5356;43.526;26.534;2022-09-09T06:03:46;99176.91;;;21.89;91.40
10618;BME280;5356;43.526;26.534;2022-09-09T06:06:14;99176.16;;;22.02;90.58
10618;BME280;5356;43.526;26.534;2022-09-09T06:08:42;99162.00;;;22.05;89.98
10618;BME280;5356;43.526;26.534;2022-09-09T06:11:20;99152.09;;;22.14;89.09
10618;BME280;5356;43.526;26.534;2022-09-09T06:13:47;99151.94;;;22.25;88.63
10618;BME280;5356;43.526;26.534;2022-09-09T06:16:15;99153.38;;;22.36;88.11
10618;BME280;5356;43.526;26.534;2022-09-09T06:18:41;99152.59;;;22.49;87.02
10618;BME280;5356;43.526;26.534;2022-09-09T06:21:13;99146.75;;;22.56;86.20
10618;BME280;5356;43.526;26.534;2022-09-09T06:23:40;99163.00;;;22.75;85.98
10618;BME280;5356;43.526;26.534;2022-09-09T06:26:11;99156.84;;;22.83;85.08
10618;BME280;5356;43.526;26.534;2022-09-09T06:28:37;99156.97;;;22.92;84.71
10618;BME280;5356;43.526;26.534;2022-09-09T06:31:05;99153.75;;;23.03;84.02
10618;BME280;5356;43.526;26.534;2022-09-09T06:33:32;99157.19;;;23.09;82.88
10618;BME280;5356;43.526;26.534;2022-09-09T06:36:00;99151.13;;;23.26;82.08
10618;BME280;5356;43.526;26.534;2022-09-09T06:38:26;99165.31;;;23.37;80.74
10618;BME280;5356;43.526;26.534;2022-09-09T06:40:53;99161.88;;;23.45;79.91
10618;BME280;5356;43.526;26.534;2022-09-09T06:43:23;99161.44;;;23.51;78.45
10618;BME280;5356;43.526;26.534;2022-09-09T06:45:59;99163.63;;;23.63;77.70
10618;BME280;5356;43.526;26.534;2022-09-09T06:48:25;99159.31;;;23.76;77.19
10618;BME280;5356;43.526;26.534;2022-09-09T06:51:04;99153.00;;;23.89;74.66
10618;BME280;5356;43.526;26.534;2022-09-09T06:53:31;99155.22;;;24.10;73.03
10618;BME280;5356;43.526;26.534;2022-09-09T06:55:59;99145.56;;;24.26;73.83
10618;BME280;5356;43.526;26.534;2022-09-09T06:58:26;99145.97;;;24.42;72.81
10618;BME280;5356;43.526;26.534;2022-09-09T07:00:51;99142.69;;;24.54;71.51
10618;BME280;5356;43.526;26.534;2022-09-09T07:03:18;99148.19;;;24.71;69.21
10618;BME280;5356;43.526;26.534;2022-09-09T07:05:43;99149.06;;;24.80;69.87
10618;BME280;5356;43.526;26.534;2022-09-09T07:08:10;99145.75;;;25.01;69.52
10618;BME280;5356;43.526;26.534;2022-09-09T07:10:35;99153.31;;;25.13;68.51
10618;BME280;5356;43.526;26.534;2022-09-09T07:13:01;99149.38;;;25.27;66.93
10618;BME280;5356;43.526;26.534;2022-09-09T07:15:27;99154.53;;;25.38;65.97
10618;BME280;5356;43.526;26.534;2022-09-09T07:17:53;99157.44;;;25.50;64.75
10618;BME280;5356;43.526;26.534;2022-09-09T07:20:19;99157.13;;;25.60;64.64
10618;BME280;5356;43.526;26.534;2022-09-09T07:22:45;99159.38;;;25.75;63.88
10618;BME280;5356;43.526;26.534;2022-09-09T07:25:11;99165.81;;;25.80;62.66
10618;BME280;5356;43.526;26.534;2022-09-09T07:27:36;99161.97;;;25.89;61.11
10618;BME280;5356;43.526;26.534;2022-09-09T07:30:02;99161.97;;;25.98;60.36
10618;BME280;5356;43.526;26.534;2022-09-09T07:32:28;99156.81;;;26.05;59.89
10618;BME280;5356;43.526;26.534;2022-09-09T07:34:55;99162.25;;;26.23;59.62
10618;BME280;5356;43.526;26.534;2022-09-09T07:37:23;99164.97;;;26.23;58.47
10618;BME280;5356;43.526;26.534;2022-09-09T07:39:49;99156.94;;;26.26;58.63
10618;BME280;5356;43.526;26.534;2022-09-09T07:42:16;99160.44;;;26.44;58.43
10618;BME280;5356;43.526;26.534;2022-09-09T07:44:41;99162.66;;;26.59;58.14
10618;BME280;5356;43.526;26.534;2022-09-09T07:47:07;99158.44;;;26.71;58.20
10618;BME280;5356;43.526;26.534;2022-09-09T07:49:32;99151.75;;;26.89;57.23
10618;BME280;5356;43.526;26.534;2022-09-09T07:51:58;99147.78;;;26.86;55.06
10618;BME280;5356;43.526;26.534;2022-09-09T07:54:23;99139.19;;;26.97;55.37
10618;BME280;5356;43.526;26.534;2022-09-09T07:56:51;99146.22;;;27.06;54.34
10618;BME280;5356;43.526;26.534;2022-09-09T07:59:17;99139.06;;;27.23;53.75
10618;BME280;5356;43.526;26.534;2022-09-09T08:01:46;99127.78;;;27.24;54.01
10618;BME280;5356;43.526;26.534;2022-09-09T08:04:17;99133.22;;;27.33;53.83
10618;BME280;5356;43.526;26.534;2022-09-09T08:06:48;99131.06;;;27.39;53.15
10618;BME280;5356;43.526;26.534;2022-09-09T08:09:16;99129.88;;;27.48;52.40
10618;BME280;5356;43.526;26.534;2022-09-09T08:11:42;99134.41;;;27.65;52.23
10618;BME280;5356;43.526;26.534;2022-09-09T08:14:09;99128.00;;;27.82;52.17
10618;BME280;5356;43.526;26.534;2022-09-09T08:16:44;99120.94;;;27.81;51.17
10618;BME280;5356;43.526;26.534;2022-09-09T08:19:10;99139.22;;;27.89;51.21
10618;BME280;5356;43.526;26.534;2022-09-09T08:21:38;99142.94;;;28.06;50.14
10618;BME280;5356;43.526;26.534;2022-09-09T08:24:05;99142.28;;;28.09;49.58
10618;BME280;5356;43.526;26.534;2022-09-09T08:26:40;99135.09;;;28.16;48.52
10618;BME280;5356;43.526;26.534;2022-09-09T08:29:08;99147.91;;;28.25;48.55
10618;BME280;5356;43.526;26.534;2022-09-09T08:31:35;99145.53;;;28.35;47.93
10618;BME280;5356;43.526;26.534;2022-09-09T08:34:03;99146.91;;;28.41;48.04
10618;BME280;5356;43.526;26.534;2022-09-09T08:36:30;99133.28;;;28.54;47.99
10618;BME280;5356;43.526;26.534;2022-09-09T08:38:59;99136.47;;;28.56;47.90
10618;BME280;5356;43.526;26.534;2022-09-09T08:55:24;99107.47;;;29.04;45.45
10618;BME280;5356;43.526;26.534;2022-09-09T08:57:53;99108.03;;;29.09;45.00
10618;BME280;5356;43.526;26.534;2022-09-09T09:00:20;99105.75;;;29.12;45.19
10618;BME280;5356;43.526;26.534;2022-09-09T09:10:58;99101.66;;;29.46;44.08
10618;BME280;5356;43.526;26.534;2022-09-09T09:18:43;99086.00;;;29.87;43.35
10618;BME280;5356;43.526;26.534;2022-09-09T09:21:29;99081.47;;;29.94;42.55
10618;BME280;5356;43.526;26.534;2022-09-09T09:24:00;99072.81;;;30.08;43.01
10618;BME280;5356;43.526;26.534;2022-09-09T09:26:34;99080.31;;;30.24;42.43
10618;BME280;5356;43.526;26.534;2022-09-09T09:29:15;99066.47;;;30.36;42.39
10618;BME280;5356;43.526;26.534;2022-09-09T09:31:48;99065.22;;;30.49;42.49
10618;BME280;5356;43.526;26.534;2022-09-09T09:34:16;99068.22;;;30.60;42.11
10618;BME280;5356;43.526;26.534;2022-09-09T09:36:59;99059.25;;;30.63;41.65
10618;BME280;5356;43.526;26.534;2022-09-09T09:39:30;99056.03;;;30.77;41.70
10618;BME280;5356;43.526;26.534;2022-09-09T09:41:57;99061.19;;;30.78;41.34
10618;BME280;5356;43.526;26.534;2022-09-09T09:44:31;99058.38;;;30.75;40.59
10618;BME280;5356;43.526;26.534;2022-09-09T09:47:12;99071.75;;;30.76;40.84
10618;BME280;5356;43.526;26.534;2022-09-09T09:49:39;99061.31;;;30.82;39.98
10618;BME280;5356;43.526;26.534;2022-09-09T09:52:17;99062.72;;;30.92;40.69
10618;BME280;5356;43.526;26.534;2022-09-09T09:54:46;99065.09;;;30.93;40.49
10618;BME280;5356;43.526;26.534;2022-09-09T09:57:13;99069.81;;;30.93;40.54
10618;BME280;5356;43.526;26.534;2022-09-09T09:59:40;99058.34;;;30.91;40.25
10618;BME280;5356;43.526;26.534;2022-09-09T10:04:42;99062.84;;;30.99;39.88
10618;BME280;5356;43.526;26.534;2022-09-09T10:07:21;99068.16;;;31.07;39.45
10618;BME280;5356;43.526;26.534;2022-09-09T10:09:55;99077.44;;;31.19;39.62
10618;BME280;5356;43.526;26.534;2022-09-09T10:12:50;99061.22;;;31.14;39.90
10618;BME280;5356;43.526;26.534;2022-09-09T10:15:48;99065.81;;;31.25;39.95
10618;BME280;5356;43.526;26.534;2022-09-09T10:40:00;99048.81;;;31.82;38.62
10618;BME280;5356;43.526;26.534;2022-09-09T10:42:31;99046.75;;;31.94;38.80
10618;BME280;5356;43.526;26.534;2022-09-09T10:45:06;99053.69;;;32.08;38.63
10618;BME280;5356;43.526;26.534;2022-09-09T10:50:35;99040.44;;;32.17;38.32
10618;BME280;5356;43.526;26.534;2022-09-09T10:55:50;99042.69;;;32.11;37.99
10618;BME280;5356;43.526;26.534;2022-09-09T10:58:24;99035.97;;;32.09;37.82
10618;BME280;5356;43.526;26.534;2022-09-09T11:00:54;99045.16;;;32.16;37.55
10618;BME280;5356;43.526;26.534;2022-09-09T11:03:31;99032.91;;;32.14;37.73
10618;BME280;5356;43.526;26.534;2022-09-09T11:06:05;99033.63;;;32.11;37.53
10618;BME280;5356;43.526;26.534;2022-09-09T11:08:34;99028.53;;;32.13;37.75
10618;BME280;5356;43.526;26.534;2022-09-09T11:14:01;99028.41;;;32.29;37.74
10618;BME280;5356;43.526;26.534;2022-09-09T11:21:49;99013.94;;;32.35;37.19
10618;BME280;5356;43.526;26.534;2022-09-09T11:24:40;99014.81;;;32.39;37.35
10618;BME280;5356;43.526;26.534;2022-09-09T11:27:13;99018.78;;;32.42;37.14
10618;BME280;5356;43.526;26.534;2022-09-09T11:40:46;99015.41;;;32.52;36.89
10618;BME280;5356;43.526;26.534;2022-09-09T11:43:14;99016.00;;;32.65;36.71
10618;BME280;5356;43.526;26.534;2022-09-09T11:45:41;99013.75;;;32.74;36.62
10618;BME280;5356;43.526;26.534;2022-09-09T11:48:25;99021.28;;;32.77;36.36
10618;BME280;5356;43.526;26.534;2022-09-09T11:51:04;99011.00;;;32.74;36.37
10618;BME280;5356;43.526;26.534;2022-09-09T11:53:30;99002.78;;;32.78;36.42
10618;BME280;5356;43.526;26.534;2022-09-09T11:56:09;99004.38;;;32.79;36.52
10618;BME280;5356;43.526;26.534;2022-09-09T11:58:55;99004.25;;;32.72;36.66
10618;BME280;5356;43.526;26.534;2022-09-09T12:04:26;99009.78;;;32.72;36.49
10618;BME280;5356;43.526;26.534;2022-09-09T12:09:27;99004.88;;;32.88;36.97
10618;BME280;5356;43.526;26.534;2022-09-09T12:17:26;98980.94;;;33.26;36.60
10618;BME280;5356;43.526;26.534;2022-09-09T12:20:03;98986.31;;;33.49;36.00
10618;BME280;5356;43.526;26.534;2022-09-09T12:30:46;98972.84;;;33.44;35.63
10618;BME280;5356;43.526;26.534;2022-09-09T12:33:18;98970.50;;;33.46;36.08
10618;BME280;5356;43.526;26.534;2022-09-09T12:35:47;98972.41;;;33.38;36.01
10618;BME280;5356;43.526;26.534;2022-09-09T12:38:31;98967.13;;;33.60;35.68
10618;BME280;5356;43.526;26.534;2022-09-09T12:40:58;98968.75;;;33.64;35.37
10618;BME280;5356;43.526;26.534;2022-09-09T12:43:26;98965.56;;;33.62;35.94
10618;BME280;5356;43.526;26.534;2022-09-09T12:45:56;98959.59;;;33.57;35.76
10618;BME280;5356;43.526;26.534;2022-09-09T12:48:39;98962.31;;;33.53;35.52
10618;BME280;5356;43.526;26.534;2022-09-09T12:51:15;98952.75;;;33.47;35.74
10618;BME280;5356;43.526;26.534;2022-09-09T12:53:42;98953.69;;;33.58;35.51
10618;BME280;5356;43.526;26.534;2022-09-09T12:56:19;98949.78;;;33.63;35.76
10618;BME280;5356;43.526;26.534;2022-09-09T12:58:48;98954.97;;;33.71;35.94
10618;BME280;5356;43.526;26.534;2022-09-09T13:01:31;98946.75;;;33.75;35.85
10618;BME280;5356;43.526;26.534;2022-09-09T13:03:58;98946.47;;;33.91;35.53
10618;BME280;5356;43.526;26.534;2022-09-09T13:06:26;98947.31;;;33.95;35.48
10618;BME280;5356;43.526;26.534;2022-09-09T13:08:54;98944.94;;;33.97;35.40
10618;BME280;5356;43.526;26.534;2022-09-09T13:11:43;98943.84;;;34.05;35.39
10618;BME280;5356;43.526;26.534;2022-09-09T13:14:19;98942.28;;;34.08;35.44
10618;BME280;5356;43.526;26.534;2022-09-09T13:17:00;98933.75;;;34.27;35.02
10618;BME280;5356;43.526;26.534;2022-09-09T13:19:29;98935.03;;;34.48;35.30
10618;BME280;5356;43.526;26.534;2022-09-09T13:21:57;98933.81;;;34.38;35.07
10618;BME280;5356;43.526;26.534;2022-09-09T13:24:31;98936.66;;;34.49;34.43
10618;BME280;5356;43.526;26.534;2022-09-09T13:26:59;98935.44;;;34.46;34.54
10618;BME280;5356;43.526;26.534;2022-09-09T13:29:27;98929.91;;;34.46;34.38
10618;BME280;5356;43.526;26.534;2022-09-09T13:31:53;98926.00;;;34.54;34.26
10618;BME280;5356;43.526;26.534;2022-09-09T13:34:30;98926.00;;;34.54;34.46
10618;BME280;5356;43.526;26.534;2022-09-09T13:37:07;98926.84;;;34.62;34.48
10618;BME280;5356;43.526;26.534;2022-09-09T13:39:51;98921.19;;;34.40;34.65
10618;BME280;5356;43.526;26.534;2022-09-09T13:42:28;98928.19;;;34.20;34.99
10618;BME280;5356;43.526;26.534;2022-09-09T13:44:56;98921.81;;;34.16;34.70
10618;BME280;5356;43.526;26.534;2022-09-09T13:47:29;98914.84;;;33.88;34.94
10618;BME280;5356;43.526;26.534;2022-09-09T13:49:56;98915.94;;;33.73;34.79
10618;BME280;5356;43.526;26.534;2022-09-09T13:52:21;98915.66;;;33.44;35.13
10618;BME280;5356;43.526;26.534;2022-09-09T13:54:51;98906.16;;;33.42;35.60
10618;BME280;5356;43.526;26.534;2022-09-09T13:57:22;98909.19;;;33.29;35.37
10618;BME280;5356;43.526;26.534;2022-09-09T13:59:49;98910.91;;;33.07;35.93
10618;BME280;5356;43.526;26.534;2022-09-09T14:02:16;98904.66;;;32.80;36.17
10618;BME280;5356;43.526;26.534;2022-09-09T14:04:42;98904.75;;;32.87;36.42
10618;BME280;5356;43.526;26.534;2022-09-09T14:07:15;98913.72;;;33.11;36.52
10618;BME280;5356;43.526;26.534;2022-09-09T14:09:42;98912.47;;;33.05;36.19
10618;BME280;5356;43.526;26.534;2022-09-09T14:12:11;98895.97;;;32.78;36.66
10618;BME280;5356;43.526;26.534;2022-09-09T14:14:37;98901.94;;;32.50;37.02
10618;BME280;5356;43.526;26.534;2022-09-09T14:17:03;98897.59;;;32.26;37.07
10618;BME280;5356;43.526;26.534;2022-09-09T14:19:29;98897.41;;;32.12;37.44
10618;BME280;5356;43.526;26.534;2022-09-09T14:21:56;98887.81;;;32.02;37.29
10618;BME280;5356;43.526;26.534;2022-09-09T14:24:22;98878.88;;;31.86;37.82
10618;BME280;5356;43.526;26.534;2022-09-09T14:26:47;98884.16;;;31.71;38.08
10618;BME280;5356;43.526;26.534;2022-09-09T14:29:13;98889.63;;;31.68;38.23
10618;BME280;5356;43.526;26.534;2022-09-09T14:31:38;98885.56;;;31.62;38.24
10618;BME280;5356;43.526;26.534;2022-09-09T14:34:04;98880.53;;;31.44;38.47
10618;BME280;5356;43.526;26.534;2022-09-09T14:36:31;98875.50;;;31.27;38.70
10618;BME280;5356;43.526;26.534;2022-09-09T14:38:56;98870.28;;;31.22;38.76
10618;BME280;5356;43.526;26.534;2022-09-09T14:41:23;98875.78;;;31.22;38.84
10618;BME280;5356;43.526;26.534;2022-09-09T14:43:50;98880.00;;;31.16;39.12
10618;BME280;5356;43.526;26.534;2022-09-09T14:46:18;98872.78;;;31.07;38.94
10618;BME280;5356;43.526;26.534;2022-09-09T14:48:44;98875.03;;;31.02;39.26
10618;BME280;5356;43.526;26.534;2022-09-09T14:53:39;98879.53;;;30.91;39.57
10618;BME280;5356;43.526;26.534;2022-09-09T14:56:07;98877.00;;;30.82;39.77
10618;BME280;5356;43.526;26.534;2022-09-09T14:58:34;98877.25;;;30.77;39.99
10618;BME280;5356;43.526;26.534;2022-09-09T15:01:14;98878.34;;;30.72;40.12
10618;BME280;5356;43.526;26.534;2022-09-09T15:03:41;98881.38;;;30.67;40.48
10618;BME280;5356;43.526;26.534;2022-09-09T15:06:08;98882.47;;;30.62;40.34
10618;BME280;5356;43.526;26.534;2022-09-09T15:08:37;98875.59;;;30.53;40.44
10618;BME280;5356;43.526;26.534;2022-09-09T15:11:05;98867.69;;;30.51;40.49
10618;BME280;5356;43.526;26.534;2022-09-09T15:13:32;98881.13;;;30.37;40.62
10618;BME280;5356;43.526;26.534;2022-09-09T15:16:04;98877.88;;;30.31;40.65
10618;BME280;5356;43.526;26.534;2022-09-09T15:18:30;98882.66;;;30.34;40.75
10618;BME280;5356;43.526;26.534;2022-09-09T15:20:55;98888.00;;;30.27;40.88
10618;BME280;5356;43.526;26.534;2022-09-09T15:23:21;98885.59;;;30.26;40.75
10618;BME280;5356;43.526;26.534;2022-09-09T15:25:54;98891.38;;;30.20;41.21